St. LLORENÇ del MUNT i l'OBAC -La Mata (Bages)





Hora UTC 20:55
Temperatura 4.4 ºC
Humitat 62.6 %
Pressió 1006.0 hPa
Pluja 0.2 mm
Velocitat vent 13.4 km/h
Direcció vent W
Radiació solar 0.1 W/m²
Fuel 34.3 %

Dades diàries 2024-02-23



Hora UTC (hivern +1h; estiu +2h)
Temperatura (ºC) Humitat (%) Pressió (hPa) Velocitat vent (km/h) Precipitació (mm) Fuel (%) Radiació solar (W/m²)
Hora UTC Aire Humitat Pressió Vel. Dir. Vel. Max Dir. Intent. màx 5 min. Fuel Rad. Sol.
00:05 8.6 83.5 1005.0 11.7 WSW 11.7 WSW 0.0 36.3 0.1
00:10 8.5 83.8 1004.9 14.1 WSW 21.5 WSW 0.0 36.7 0.1
00:15 8.5 83.6 1004.8 12.0 SW 20.1 SW 0.0 36.9 0.1
00:20 8.5 83.0 1004.7 14.9 WSW 25.1 WSW 0.0 37.1 0.1
00:25 8.5 82.4 1004.8 11.0 SW 22.6 WSW 0.0 37.2 0.1
00:30 8.4 82.3 1004.7 7.0 SSW 14.8 SSW 0.0 37.4 0.1
00:35 8.4 82.0 1004.7 8.6 SSW 15.9 S 0.0 37.5 0.1
00:40 8.4 81.9 1004.7 9.7 SW 15.9 W 0.0 37.7 0.1
00:45 8.0 82.2 1004.7 11.9 SSW 20.1 S 0.0 37.8 0.1
00:50 7.6 84.0 1004.7 12.6 SSW 18.0 SSW 0.0 37.9 0.1
00:55 7.3 85.2 1004.8 11.2 SW 17.6 SW 0.0 38.2 0.1
01:00 7.1 86.5 1004.6 12.7 SSW 19.1 SSW 0.0 40.3 0.1
01:05 7.0 88.3 1004.9 12.9 SW 20.5 SW 0.0 42.0 0.1
01:10 6.9 89.7 1005.0 10.7 SW 20.1 WSW 0.0 43.8 0.1
01:15 6.9 90.5 1005.0 12.2 WSW 21.5 SW 0.0 48.9 0.1
01:20 6.8 90.8 1005.0 14.1 SSW 25.4 S 0.2 63.8 0.1
01:25 6.5 90.5 1004.9 12.7 SSW 24.3 SSW 0.0 71.2 0.1
01:30 6.5 90.8 1005.0 8.9 SW 16.9 WSW 0.0 72.5 0.1
01:35 6.6 90.4 1004.9 11.3 SW 22.2 WSW 0.0 72.6 0.1
01:40 6.6 89.2 1004.9 18.6 W 32.8 W 0.0 72.4 0.1
01:45 6.3 88.3 1004.8 15.8 WSW 24.3 W 0.0 71.8 0.1
01:50 6.1 87.5 1004.7 13.4 W 24.0 W 0.0 71.1 0.1
01:55 5.8 87.1 1004.6 16.6 W 28.2 WNW 0.0 70.7 0.1
02:00 5.7 86.8 1004.6 16.3 WSW 25.8 W 0.0 70.2 0.1
02:05 5.5 86.8 1004.5 13.4 WSW 23.6 W 0.0 69.8 0.1
02:10 5.3 87.0 1004.6 14.3 WSW 26.8 W 0.0 69.5 0.1
02:15 5.2 86.8 1004.6 9.9 W 22.6 W 0.0 69.1 0.1
02:20 5.0 86.5 1004.6 11.8 W 22.2 W 0.0 68.8 0.1
02:25 4.6 85.4 1004.4 15.2 W 26.8 WNW 0.0 68.2 0.1
02:30 4.4 84.8 1004.3 13.1 WSW 20.1 SW 0.0 68.0 0.1
02:35 4.2 85.0 1004.3 10.9 SW 19.8 WSW 0.0 67.9 0.1
02:40 4.1 85.5 1004.2 10.0 WSW 16.9 WSW 0.0 67.8 0.1
02:45 4.0 85.4 1004.1 10.7 WSW 16.9 W 0.0 67.4 0.1
02:50 3.9 85.4 1004.2 10.0 WSW 15.9 WSW 0.0 67.2 0.1
02:55 3.9 85.6 1004.0 6.8 SSW 10.2 S 0.0 67.2 0.1
03:00 3.7 86.1 1003.9 7.0 SW 15.9 SSW 0.0 67.2 0.1
03:05 3.6 85.6 1003.9 12.6 WSW 22.2 WNW 0.0 66.7 0.1
03:10 3.5 84.4 1003.9 12.6 WSW 18.4 W 0.0 66.3 0.1
03:15 3.4 83.8 1003.9 11.6 WSW 18.0 SSW 0.0 65.9 0.1
03:20 3.3 83.6 1003.9 10.3 W 17.3 WNW 0.0 65.5 0.2
03:25 3.2 83.6 1003.8 8.4 W 18.4 WNW 0.0 65.2 0.1
03:30 3.1 83.5 1003.6 13.6 W 19.1 W 0.0 65.0 0.1
03:35 3.0 83.7 1003.6 13.2 W 20.8 W 0.0 64.8 0.1
03:40 3.0 83.5 1003.6 15.0 W 22.6 W 0.0 64.5 0.1
03:45 2.9 83.0 1003.5 12.8 W 21.9 W 0.0 64.3 0.2
03:50 2.8 83.0 1003.5 13.6 WSW 21.2 W 0.0 64.1 0.1
03:55 2.7 82.2 1003.5 13.4 W 24.7 W 0.0 63.7 0.1
04:00 2.6 81.4 1003.5 10.5 WSW 20.8 WSW 0.0 63.3 0.1
04:05 2.5 81.3 1003.4 13.6 W 21.2 W 0.0 63.2 0.1
04:10 2.4 80.9 1003.5 13.8 WNW 20.8 WNW 0.0 63.0 0.1
04:15 2.3 80.8 1003.5 12.2 WNW 20.1 WNW 0.0 62.8 0.1
04:20 2.2 80.9 1003.6 13.7 W 18.7 WNW 0.0 62.6 0.1
04:25 2.1 81.2 1003.5 13.0 W 19.1 WSW 0.0 62.5 0.1
04:30 2.1 81.2 1003.6 11.3 WNW 19.1 WNW 0.0 62.4 0.1
04:35 2.0 81.3 1003.6 11.4 W 21.5 W 0.0 62.3 0.1
04:40 2.0 81.6 1003.6 14.7 W 24.0 W 0.0 62.2 0.1
04:45 1.9 81.7 1003.6 11.5 WNW 19.1 WNW 0.0 62.3 0.1
04:50 1.9 81.8 1003.5 8.3 NW 18.4 W 0.0 62.2 0.1
04:55 1.7 82.2 1003.6 2.9 SW 8.1 W 0.0 61.9 0.1
05:00 1.5 83.0 1003.5 2.2 N 7.8 WSW 0.0 61.9 0.1
05:05 1.4 83.4 1003.4 3.5 N 10.2 N 0.0 61.8 0.1
05:10 1.1 84.0 1003.4 2.0 NE 7.8 NNW 0.0 62.0 0.1
05:15 1.0 84.7 1003.4 3.3 NNE 7.1 NNW 0.0 62.1 0.1
05:20 0.9 85.3 1003.4 4.3 NNE 7.4 NNW 0.0 62.4 0.1
05:25 1.0 85.8 1003.5 2.3 NNE 10.2 N 0.0 62.7 0.1
05:30 0.9 86.0 1003.5 1.3 ESE 3.5 SE 0.0 62.7 0.1
05:35 0.8 86.2 1003.6 2.8 E 6.4 NE 0.0 62.8 0.1
05:40 0.7 86.7 1003.8 3.1 ESE 7.1 WSW 0.0 63.1 0.1
05:45 0.7 87.3 1003.8 2.8 NE 7.8 NE 0.0 63.5 0.1
05:50 0.7 87.4 1003.8 3.1 SE 10.6 NNW 0.0 63.9 0.1
05:55 0.7 87.6 1003.9 3.6 S 14.8 W 0.0 64.2 0.1
06:00 0.8 87.9 1003.9 5.4 NW 16.6 NW 0.0 64.7 0.1
06:05 0.7 87.9 1003.9 2.8 ENE 10.2 N 0.0 64.8 0.1
06:10 0.5 88.1 1003.9 3.4 ENE 12.7 W 0.0 64.8 0.1
06:15 0.6 88.8 1003.9 6.2 WNW 13.8 WNW 0.0 65.4 0.1
06:20 0.6 89.1 1003.9 6.5 WNW 13.1 WNW 0.0 65.9 0.2
06:25 0.6 89.2 1004.0 4.8 NW 15.9 NW 0.0 66.1 0.5
06:30 0.6 89.4 1003.9 3.4 NNW 16.6 W 0.0 66.3 1.2
06:35 0.5 89.6 1003.9 3.5 NE 13.4 ENE 0.0 66.5 2.6
06:40 0.4 89.7 1004.1 4.1 E 10.6 ESE 0.0 66.7 4.3
06:45 0.3 90.1 1004.2 3.0 NE 9.2 NE 0.0 67.1 6.1
06:50 0.3 90.3 1004.3 2.1 NE 7.4 N 0.0 67.3 8.1
06:55 0.3 90.6 1004.3 2.7 NW 9.9 WSW 0.0 67.7 10.5
07:00 0.4 90.7 1004.4 2.3 SE 6.4 W 0.0 68.0 14.2
07:05 0.4 90.7 1004.5 2.4 ENE 6.7 WNW 0.0 68.3 66.9
07:10 0.7 91.0 1004.5 3.2 E 8.8 WSW 0.0 68.8 88.7
07:15 1.1 90.8 1004.5 4.9 ESE 13.1 NE 0.0 69.4 100.1
07:20 1.2 89.6 1004.6 3.7 NNW 11.6 NW 0.0 69.6 111.1
07:25 1.4 88.6 1004.7 4.5 NE 13.8 NNW 0.0 69.8 46.8
07:30 1.4 88.2 1004.8 2.4 E 11.6 SW 0.0 69.8 125.6
07:35 2.0 88.2 1005.0 4.0 SE 8.5 SE 0.0 70.3 142.7
07:40 2.0 86.0 1005.0 1.7 E 7.4 SW 0.0 70.2 156.3
07:45 1.9 84.6 1005.0 3.5 NW 10.6 NNW 0.0 70.1 170.4
07:50 2.0 83.8 1005.2 5.9 WNW 15.5 W 0.0 70.1 184.2
07:55 2.0 82.6 1005.3 5.9 WNW 14.8 W 0.0 70.0 197.6
08:00 2.0 82.1 1005.3 6.0 WNW 12.0 NW 0.0 70.4 212.5
08:05 2.1 81.7 1005.3 5.0 NW 9.9 NNW 0.0 71.4 227.4
08:10 2.4 81.5 1005.4 2.8 WNW 13.1 WSW 0.0 71.7 241.0
08:15 2.6 80.5 1005.4 5.9 W 10.9 NW 0.0 71.0 254.3
08:20 2.6 80.4 1005.4 5.3 W 10.9 W 0.0 70.2 268.6
08:25 2.8 79.5 1005.3 6.6 W 12.0 WNW 0.0 69.2 282.8
08:30 2.9 77.8 1005.2 7.0 WNW 12.7 WNW 0.0 68.4 297.0
08:35 2.9 77.2 1005.3 8.3 W 18.0 W 0.0 67.5 310.2
08:40 3.1 77.2 1005.5 7.5 WSW 15.9 SW 0.0 67.0 323.1
08:45 3.0 77.0 1005.5 6.0 WNW 12.0 WNW 0.0 66.3 340.1
08:50 3.2 76.7 1005.6 8.1 WSW 18.4 WSW 0.0 65.5 353.9
08:55 3.1 76.2 1005.7 10.2 WSW 18.0 WNW 0.0 64.4 365.1
09:00 2.9 76.1 1005.7 12.9 WSW 22.9 WSW 0.0 63.2 375.9
09:05 2.9 75.8 1005.7 11.7 W 24.3 WSW 0.0 62.2 388.1
09:10 3.2 75.8 1005.7 9.3 W 22.9 W 0.0 61.9 401.1
09:15 3.2 73.3 1005.7 10.5 W 27.2 W 0.0 60.8 413.9
09:20 3.5 72.5 1005.7 14.2 W 30.3 W 0.0 60.4 428.1
09:25 3.6 69.6 1005.6 15.4 W 28.6 W 0.0 59.1 442.1
09:30 3.9 68.0 1005.6 17.9 W 36.3 WSW 0.0 58.4 452.2
09:35 4.1 66.5 1005.7 10.9 W 25.1 W 0.0 57.8 461.3
09:40 4.3 66.8 1005.7 9.5 W 23.6 W 0.0 57.7 471.1
09:45 4.3 66.8 1005.6 12.6 WNW 30.0 WNW 0.0 56.7 481.2
09:50 4.2 67.4 1005.7 13.3 WNW 25.4 NW 0.0 55.7 492.2
09:55 4.5 68.0 1005.7 5.3 W 16.6 WNW 0.0 56.2 501.6
10:00 4.6 66.8 1005.6 13.3 W 36.0 WNW 0.0 55.2 512.7
10:05 4.2 67.7 1005.6 19.4 WNW 43.4 W 0.0 53.4 521.9
10:10 4.2 68.0 1005.7 16.9 W 34.9 W 0.0 53.0 530.6
10:15 4.3 68.4 1005.8 13.5 W 29.3 WNW 0.0 52.9 538.7
10:20 4.7 68.8 1005.8 7.9 WNW 21.2 WNW 0.0 53.4 549.7
10:25 4.9 68.0 1005.8 8.7 WNW 28.9 WNW 0.0 52.8 564.9
10:30 5.2 68.1 1005.8 4.6 WNW 22.9 W 0.0 52.8 580.4
10:35 5.6 66.8 1005.8 5.7 WNW 20.5 W 0.0 52.9 624.2
10:40 5.5 65.8 1005.8 6.1 NNW 24.3 WSW 0.0 51.7 585.3
10:45 5.8 65.7 1005.8 4.6 WNW 19.4 WSW 0.0 51.3 591.1
10:50 5.9 64.6 1005.9 11.5 W 24.7 WSW 0.0 50.5 651.6
10:55 5.9 64.9 1005.9 5.8 NW 22.2 SW 0.0 50.5 689.7
11:00 6.3 62.6 1005.8 8.0 WNW 22.6 WNW 0.0 49.6 657.6
11:05 6.4 61.6 1005.9 7.6 W 18.7 WNW 0.0 49.0 631.0
11:10 6.2 59.9 1005.8 12.5 WNW 40.6 WNW 0.0 48.0 639.1
11:15 5.9 59.7 1005.8 21.2 W 40.2 WNW 0.0 46.7 679.4
11:20 5.9 59.6 1005.8 19.0 W 38.5 WSW 0.0 46.4 703.7
11:25 6.2 59.0 1005.8 8.9 WNW 23.6 WNW 0.0 46.2 613.3
11:30 6.6 58.5 1005.8 7.2 NNW 21.9 N 0.0 46.4 615.9
11:35 6.9 57.6 1005.8 6.8 S 17.6 SSW 0.0 45.4 466.6
11:40 6.9 57.5 1005.8 5.4 NW 16.9 NE 0.0 44.9 541.3
11:45 6.7 57.8 1005.8 10.0 NW 33.9 NW 0.0 43.0 228.6
11:50 6.0 59.4 1005.7 10.1 WNW 26.1 WNW 0.0 41.5 249.7
11:55 5.8 60.5 1005.7 9.6 WNW 22.6 NW 0.0 42.8 543.7
12:00 6.0 59.6 1005.6 12.6 W 28.2 W 0.0 42.6 422.1
12:05 5.7 59.9 1005.5 22.9 W 37.4 W 0.0 40.5 188.7
12:10 5.4 61.2 1005.5 12.2 W 32.1 WSW 0.0 40.5 352.8
12:15 5.6 60.5 1005.5 8.8 WNW 26.8 WNW 0.0 41.0 243.5
12:20 5.6 60.4 1005.4 13.6 WNW 32.5 W 0.0 40.3 206.2
12:25 5.6 60.9 1005.3 14.7 W 33.5 W 0.0 40.0 187.0
12:30 5.5 61.6 1005.3 13.5 W 33.9 NW 0.0 40.0 225.9
12:35 5.6 61.6 1005.2 18.5 W 35.6 WNW 0.0 40.3 295.9
12:40 5.6 61.4 1005.2 13.5 WNW 35.3 WNW 0.0 40.0 206.0
12:45 5.8 61.6 1005.2 9.4 SW 31.1 W 0.0 40.0 161.1
12:50 5.8 60.9 1005.1 11.9 W 38.8 W 0.0 39.8 143.9
12:55 5.9 60.4 1005.2 12.2 W 31.1 SW 0.0 39.8 169.0
13:00 5.9 59.7 1005.1 10.1 WSW 34.2 WSW 0.0 39.6 129.1
13:05 5.9 59.4 1005.1 6.8 WSW 22.6 W 0.0 39.6 165.0
13:10 5.9 59.4 1005.0 11.9 WNW 30.7 W 0.0 39.8 186.4
13:15 6.1 59.3 1004.9 10.7 WSW 37.4 WNW 0.0 40.1 261.5
13:20 6.4 58.5 1004.9 13.2 W 31.1 WSW 0.0 41.3 516.7
13:25 6.8 57.1 1004.9 14.0 W 31.1 WNW 0.0 41.1 527.7
13:30 7.0 56.9 1004.8 12.1 W 27.2 W 0.0 41.5 467.5
13:35 7.0 57.0 1004.8 9.9 WSW 25.8 WNW 0.0 40.5 339.5
13:40 6.9 57.0 1004.8 10.2 WSW 23.3 WSW 0.0 39.8 244.1
13:45 6.7 56.7 1004.8 11.7 WNW 29.6 W 0.0 38.8 234.6
13:50 6.5 56.5 1004.8 13.9 W 34.9 W 0.0 39.2 346.7
13:55 7.2 56.3 1004.9 7.8 SE 21.9 WSW 0.0 41.1 535.7
14:00 7.4 54.2 1004.7 8.2 WSW 26.5 NW 0.0 39.9 420.2
14:05 7.6 54.2 1004.8 12.7 W 29.6 SW 0.0 40.6 634.1
14:10 7.8 53.9 1004.7 7.6 NW 25.8 WNW 0.0 40.2 446.7
14:15 7.4 54.2 1004.6 10.0 WNW 26.1 WSW 0.0 38.0 158.6
14:20 7.1 55.8 1004.6 7.9 WSW 30.3 SW 0.0 38.5 479.4
14:25 7.6 54.3 1004.6 12.0 W 36.0 NW 0.0 39.2 491.2
14:30 7.3 53.6 1004.6 17.3 WNW 44.5 WNW 0.0 38.0 363.4
14:35 7.0 54.2 1004.6 9.4 WNW 28.9 NNW 0.0 36.4 169.8
14:40 7.0 55.0 1004.6 7.8 W 27.2 WSW 0.0 37.1 252.0
14:45 7.0 54.3 1004.6 14.4 WNW 38.1 W 0.0 37.1 349.7
14:50 7.0 53.9 1004.6 11.4 WNW 28.2 W 0.0 36.4 181.4
14:55 6.8 54.7 1004.6 15.2 WNW 48.0 WNW 0.0 36.5 288.2
15:00 6.6 54.7 1004.7 13.7 WNW 33.9 NNW 0.0 36.3 324.0
15:05 6.9 54.4 1004.7 11.2 W 46.2 WNW 0.0 37.3 428.2
15:10 7.0 53.4 1004.7 12.3 WNW 31.4 N 0.0 37.0 339.5
15:15 6.9 53.5 1004.7 11.8 W 32.1 NNW 0.0 36.7 349.6
15:20 6.9 53.2 1004.8 10.8 WNW 37.4 NW 0.0 36.4 276.5
15:25 6.8 53.5 1004.8 12.5 W 40.9 W 0.0 35.8 293.9
15:30 7.1 52.9 1004.9 11.2 W 30.3 WNW 0.0 36.5 326.5
15:35 7.1 52.6 1004.9 13.3 WSW 33.5 W 0.0 35.9 250.6
15:40 7.1 52.5 1004.9 11.3 W 34.6 W 0.0 35.9 303.8
15:45 7.0 52.8 1004.8 13.7 W 47.6 W 0.0 35.6 280.1
15:50 6.8 52.8 1004.8 19.1 W 48.3 WNW 0.0 34.9 186.3
15:55 6.6 52.8 1004.8 14.3 W 34.6 WNW 0.0 34.2 95.2
16:00 6.5 52.4 1004.7 20.5 W 49.7 W 0.0 34.3 209.9
16:05 6.5 52.6 1004.7 22.6 W 49.4 W 0.0 34.5 226.5
16:10 6.7 52.6 1004.8 11.2 W 41.3 NW 0.0 34.7 207.2
16:15 6.6 52.3 1004.7 21.5 W 49.7 WNW 0.0 34.4 194.4
16:20 6.6 52.0 1004.8 21.3 W 52.9 W 0.0 34.3 180.1
16:25 6.5 52.1 1004.8 20.0 W 44.5 W 0.0 34.1 166.9
16:30 6.4 52.4 1004.9 19.6 WNW 47.6 WNW 0.0 33.9 144.8
16:35 6.4 53.0 1004.9 13.7 W 35.6 W 0.0 33.9 138.7
16:40 6.4 53.1 1004.9 15.2 W 34.9 WNW 0.0 33.9 125.3
16:45 6.4 52.7 1004.9 15.2 W 36.7 NW 0.0 33.3 113.4
16:50 6.4 52.5 1005.0 15.0 WNW 34.2 WNW 0.0 32.8 102.2
16:55 6.3 52.4 1005.0 13.3 W 29.3 WNW 0.0 32.7 67.5
17:00 6.1 52.8 1004.9 10.5 W 26.1 W 0.0 32.5 74.2
17:05 5.9 52.8 1004.9 14.2 WNW 33.2 W 0.0 32.4 67.2
17:10 5.7 53.3 1004.9 11.2 W 28.9 WSW 0.0 32.4 57.1
17:15 5.6 54.1 1005.0 12.9 W 29.3 WNW 0.0 32.3 30.1
17:20 5.6 54.3 1005.1 23.7 W 42.3 W 0.0 32.5 13.7
17:25 5.5 54.2 1005.2 15.8 W 37.0 W 0.0 32.4 11.0
17:30 5.5 54.7 1005.2 17.7 W 39.2 W 0.0 32.4 8.4
17:35 5.4 55.2 1005.2 15.3 W 30.7 W 0.0 32.4 6.0
17:40 5.3 55.4 1005.3 15.2 W 32.1 W 0.0 32.3 3.9
17:45 5.3 55.6 1005.3 18.8 WNW 37.8 WNW 0.0 32.4 2.1
17:50 5.2 55.8 1005.4 16.5 WNW 36.0 WNW 0.0 32.4 1.0
17:55 5.1 56.2 1005.4 12.6 W 26.8 NW 0.0 32.3 0.4
18:00 5.1 56.5 1005.4 17.5 W 38.8 W 0.0 32.4 0.2
18:05 5.1 56.4 1005.4 16.2 W 28.6 W 0.0 32.4 0.1
18:10 5.0 56.6 1005.4 14.1 WNW 28.9 NW 0.0 32.4 0.1
18:15 5.0 56.8 1005.3 13.5 WNW 33.9 W 0.0 32.5 0.1
18:20 4.9 57.2 1005.3 15.8 W 33.9 W 0.0 32.5 0.1
18:25 5.0 57.0 1005.4 16.5 W 35.6 W 0.0 32.6 0.1
18:30 4.9 57.3 1005.6 12.0 W 28.6 WNW 0.0 32.5 0.1
18:35 4.9 57.5 1005.6 14.4 WNW 27.2 NW 0.0 32.6 0.1
18:40 4.9 57.8 1005.8 14.4 W 32.8 W 0.0 32.7 0.1
18:45 4.9 58.3 1005.9 13.6 W 28.2 W 0.0 32.7 0.1
18:50 4.8 58.8 1005.9 12.3 W 25.1 W 0.0 32.7 0.1
18:55 4.8 59.4 1006.0 16.2 W 33.2 W 0.0 32.9 0.1
19:00 4.8 59.7 1006.1 18.8 W 32.8 NW 0.0 33.0 0.1
19:05 4.8 60.0 1006.1 15.7 W 31.8 WNW 0.0 33.0 0.1
19:10 4.7 60.4 1006.1 14.9 W 25.4 W 0.0 33.1 0.1
19:15 4.7 60.8 1006.1 14.1 W 26.5 WNW 0.0 33.1 0.1
19:20 4.7 61.1 1006.1 15.3 W 32.1 W 0.0 33.2 0.1
19:25 4.7 61.4 1006.0 15.5 W 32.1 WNW 0.0 33.3 0.1
19:30 4.6 61.7 1006.0 12.8 W 28.9 WNW 0.0 33.3 0.1
19:35 4.6 61.8 1006.0 16.9 W 35.6 W 0.0 33.4 0.1
19:40 4.6 61.9 1006.1 12.1 W 25.1 W 0.0 33.4 0.1
19:45 4.5 62.0 1006.1 13.2 W 23.3 W 0.0 33.5 0.1
19:50 4.5 62.0 1006.1 13.8 W 27.9 W 0.0 33.5 0.1
19:55 4.6 61.5 1006.1 13.0 W 26.8 WSW 0.0 33.6 0.1
20:00 4.5 61.5 1006.1 13.5 W 27.2 WNW 0.0 33.6 0.1
20:05 4.6 61.1 1006.2 14.8 WNW 28.9 WNW 0.0 33.8 0.1
20:10 4.5 61.4 1006.2 13.0 W 26.5 WSW 0.0 33.8 0.1
20:15 4.5 61.7 1006.2 13.1 W 23.6 WSW 0.0 33.9 0.1
20:20 4.5 62.2 1006.1 15.4 W 31.8 WNW 0.0 33.9 0.1
20:25 4.5 62.4 1006.1 13.7 W 25.4 W 0.0 34.0 0.1
20:30 4.4 62.5 1006.0 13.2 W 24.0 W 0.0 34.0 0.1
20:35 4.4 62.4 1006.0 13.6 W 23.3 WNW 0.0 34.1 0.1
20:40 4.4 62.2 1005.9 12.9 WNW 23.6 W 0.0 0.0 0.1
20:45 4.5 62.0 1005.9 12.5 W 25.4 W 0.0 34.2 0.1
20:50 4.4 62.2 1005.9 14.4 W 24.3 WNW 0.0 34.3 0.1
20:55 4.4 62.6 1006.0 13.4 W 21.9 NW 0.0 34.3 0.1
Màxima 8.6 91.0 1006.2 23.7 W 52.9 W 0.2 72.6 703.7
Mínima 0.2 52.0 1003.4 0.0
Total 0.2